sensor_id;sensor_type;location;lat;lon;timestamp;pressure;altitude;pressure_sealevel;temperature;humidity
38616;BME280;24370;51.986;4.666;2023-02-28T00:00:42;103249.44;;;10.04;45.55
38616;BME280;24370;51.986;4.666;2023-02-28T00:03:08;103259.59;;;9.94;45.21
38616;BME280;24370;51.986;4.666;2023-02-28T00:05:34;103253.41;;;9.91;45.43
38616;BME280;24370;51.986;4.666;2023-02-28T00:07:59;103257.34;;;9.78;45.70
38616;BME280;24370;51.986;4.666;2023-02-28T00:10:30;103255.84;;;9.86;45.62
38616;BME280;24370;51.986;4.666;2023-02-28T00:12:59;103268.88;;;9.84;45.29
38616;BME280;24370;51.986;4.666;2023-02-28T00:15:26;103266.66;;;9.70;45.98
38616;BME280;24370;51.986;4.666;2023-02-28T00:17:52;103275.56;;;9.49;46.90
38616;BME280;24370;51.986;4.666;2023-02-28T00:20:18;103268.78;;;9.28;46.85
38616;BME280;24370;51.986;4.666;2023-02-28T00:22:46;103279.72;;;9.70;46.67
38616;BME280;24370;51.986;4.666;2023-02-28T00:25:14;103271.59;;;10.16;45.85
38616;BME280;24370;51.986;4.666;2023-02-28T00:27:41;103274.09;;;10.12;44.90
38616;BME280;24370;51.986;4.666;2023-02-28T00:30:10;103279.53;;;10.47;45.63
38616;BME280;24370;51.986;4.666;2023-02-28T00:32:36;103274.41;;;9.94;45.35
38616;BME280;24370;51.986;4.666;2023-02-28T00:35:04;103278.69;;;10.21;45.70
38616;BME280;24370;51.986;4.666;2023-02-28T00:37:29;103284.19;;;10.57;44.89
38616;BME280;24370;51.986;4.666;2023-02-28T00:39:55;103272.66;;;10.50;44.67
38616;BME280;24370;51.986;4.666;2023-02-28T00:42:20;103272.41;;;10.72;44.60
38616;BME280;24370;51.986;4.666;2023-02-28T00:44:46;103275.81;;;10.69;44.75
38616;BME280;24370;51.986;4.666;2023-02-28T00:47:11;103270.63;;;10.71;44.66
38616;BME280;24370;51.986;4.666;2023-02-28T00:49:36;103270.44;;;10.64;44.50
38616;BME280;24370;51.986;4.666;2023-02-28T00:52:02;103262.50;;;10.93;44.18
38616;BME280;24370;51.986;4.666;2023-02-28T00:54:27;103265.88;;;10.89;44.28
38616;BME280;24370;51.986;4.666;2023-02-28T00:56:53;103266.34;;;10.74;44.73
38616;BME280;24370;51.986;4.666;2023-02-28T00:59:18;103261.22;;;10.47;45.93
38616;BME280;24370;51.986;4.666;2023-02-28T01:01:45;103261.19;;;11.09;44.72
38616;BME280;24370;51.986;4.666;2023-02-28T01:04:11;103262.44;;;10.90;44.68
38616;BME280;24370;51.986;4.666;2023-02-28T01:06:36;103264.59;;;10.73;44.70
38616;BME280;24370;51.986;4.666;2023-02-28T01:09:04;103265.94;;;11.24;44.01
38616;BME280;24370;51.986;4.666;2023-02-28T01:11:30;103279.78;;;11.18;43.89
38616;BME280;24370;51.986;4.666;2023-02-28T01:13:56;103278.25;;;11.27;43.40
38616;BME280;24370;51.986;4.666;2023-02-28T01:16:22;103277.81;;;11.45;44.18
38616;BME280;24370;51.986;4.666;2023-02-28T01:18:47;103271.78;;;11.84;42.92
38616;BME280;24370;51.986;4.666;2023-02-28T01:21:15;103268.94;;;11.38;43.52
38616;BME280;24370;51.986;4.666;2023-02-28T01:23:41;103276.38;;;10.91;45.00
38616;BME280;24370;51.986;4.666;2023-02-28T01:26:08;103274.41;;;10.82;44.48
38616;BME280;24370;51.986;4.666;2023-02-28T01:28:34;103271.63;;;11.08;44.63
38616;BME280;24370;51.986;4.666;2023-02-28T01:30:59;103267.50;;;11.51;43.54
38616;BME280;24370;51.986;4.666;2023-02-28T01:33:26;103265.69;;;11.85;42.69
38616;BME280;24370;51.986;4.666;2023-02-28T01:36:11;103267.09;;;11.35;43.75
38616;BME280;24370;51.986;4.666;2023-02-28T01:38:36;103264.84;;;11.86;42.87
38616;BME280;24370;51.986;4.666;2023-02-28T01:41:03;103268.31;;;11.15;43.60
38616;BME280;24370;51.986;4.666;2023-02-28T01:46:14;103262.03;;;11.42;43.92
38616;BME280;24370;51.986;4.666;2023-02-28T01:48:43;103259.09;;;10.96;45.32
38616;BME280;24370;51.986;4.666;2023-02-28T01:51:22;103256.28;;;11.93;42.38
38616;BME280;24370;51.986;4.666;2023-02-28T01:53:53;103251.84;;;11.91;42.93
38616;BME280;24370;51.986;4.666;2023-02-28T01:56:24;103237.91;;;11.55;43.13
38616;BME280;24370;51.986;4.666;2023-02-28T01:58:52;103241.28;;;11.51;43.54
38616;BME280;24370;51.986;4.666;2023-02-28T02:01:20;103240.03;;;11.71;42.76
38616;BME280;24370;51.986;4.666;2023-02-28T02:03:49;103240.53;;;11.93;42.83
38616;BME280;24370;51.986;4.666;2023-02-28T02:06:30;103247.06;;;11.73;42.93
38616;BME280;24370;51.986;4.666;2023-02-28T02:08:59;103244.00;;;11.19;44.04
38616;BME280;24370;51.986;4.666;2023-02-28T02:11:24;103241.22;;;11.48;44.08
38616;BME280;24370;51.986;4.666;2023-02-28T02:17:20;103232.06;;;11.65;43.50
38616;BME280;24370;51.986;4.666;2023-02-28T02:35:32;103215.44;;;11.65;43.78
38616;BME280;24370;51.986;4.666;2023-02-28T02:41:08;103214.16;;;12.25;42.36
38616;BME280;24370;51.986;4.666;2023-02-28T02:46:30;103217.56;;;11.10;44.06
38616;BME280;24370;51.986;4.666;2023-02-28T02:49:00;103209.97;;;11.54;43.82
38616;BME280;24370;51.986;4.666;2023-02-28T02:51:30;103213.00;;;11.73;43.78
38616;BME280;24370;51.986;4.666;2023-02-28T02:54:02;103216.41;;;12.07;42.25
38616;BME280;24370;51.986;4.666;2023-02-28T02:56:31;103218.19;;;12.08;42.21
38616;BME280;24370;51.986;4.666;2023-02-28T02:59:07;103225.44;;;12.21;42.07
38616;BME280;24370;51.986;4.666;2023-02-28T03:01:35;103214.44;;;11.96;42.42
38616;BME280;24370;51.986;4.666;2023-02-28T03:04:09;103211.03;;;12.00;42.77
38616;BME280;24370;51.986;4.666;2023-02-28T03:06:35;103216.75;;;12.22;42.32
38616;BME280;24370;51.986;4.666;2023-02-28T03:09:01;103226.63;;;12.34;42.16
38616;BME280;24370;51.986;4.666;2023-02-28T03:11:27;103225.63;;;11.91;43.03
38616;BME280;24370;51.986;4.666;2023-02-28T03:15:02;103224.53;;;12.19;42.22
38616;BME280;24370;51.986;4.666;2023-02-28T03:22:45;103230.31;;;12.02;42.49
38616;BME280;24370;51.986;4.666;2023-02-28T03:25:39;103237.78;;;12.25;42.55
38616;BME280;24370;51.986;4.666;2023-02-28T03:33:31;103232.81;;;11.61;43.95
38616;BME280;24370;51.986;4.666;2023-02-28T03:36:02;103227.94;;;11.77;42.88
38616;BME280;24370;51.986;4.666;2023-02-28T03:38:39;103230.63;;;11.42;44.01
38616;BME280;24370;51.986;4.666;2023-02-28T03:41:14;103229.84;;;11.84;43.21
38616;BME280;24370;51.986;4.666;2023-02-28T03:43:45;103234.19;;;11.10;44.79
38616;BME280;24370;51.986;4.666;2023-02-28T03:46:16;103238.13;;;10.94;45.30
38616;BME280;24370;51.986;4.666;2023-02-28T03:48:55;103231.34;;;11.73;44.44
38616;BME280;24370;51.986;4.666;2023-02-28T03:51:24;103229.88;;;12.24;43.21
38616;BME280;24370;51.986;4.666;2023-02-28T03:53:58;103228.03;;;11.81;43.80
38616;BME280;24370;51.986;4.666;2023-02-28T03:56:32;103220.41;;;11.92;43.82
38616;BME280;24370;51.986;4.666;2023-02-28T03:59:00;103228.38;;;11.22;44.55
38616;BME280;24370;51.986;4.666;2023-02-28T04:01:40;103212.84;;;12.04;43.63
38616;BME280;24370;51.986;4.666;2023-02-28T04:04:08;103221.25;;;12.29;42.69
38616;BME280;24370;51.986;4.666;2023-02-28T04:06:35;103219.41;;;12.25;42.28
38616;BME280;24370;51.986;4.666;2023-02-28T04:09:02;103224.16;;;12.02;42.94
38616;BME280;24370;51.986;4.666;2023-02-28T04:11:48;103219.50;;;11.90;43.17
38616;BME280;24370;51.986;4.666;2023-02-28T04:14:16;103219.47;;;11.87;43.29
38616;BME280;24370;51.986;4.666;2023-02-28T04:16:42;103221.59;;;12.03;42.89
38616;BME280;24370;51.986;4.666;2023-02-28T04:19:09;103220.41;;;12.30;42.17
38616;BME280;24370;51.986;4.666;2023-02-28T04:21:40;103224.47;;;12.57;41.47
38616;BME280;24370;51.986;4.666;2023-02-28T04:24:08;103225.34;;;12.15;41.83
38616;BME280;24370;51.986;4.666;2023-02-28T04:26:40;103225.38;;;11.42;42.19
38616;BME280;24370;51.986;4.666;2023-02-28T04:29:06;103239.16;;;11.34;42.92
38616;BME280;24370;51.986;4.666;2023-02-28T04:31:33;103231.72;;;11.51;43.13
38616;BME280;24370;51.986;4.666;2023-02-28T04:33:59;103233.53;;;10.85;44.60
38616;BME280;24370;51.986;4.666;2023-02-28T04:36:24;103242.91;;;11.11;44.46
38616;BME280;24370;51.986;4.666;2023-02-28T04:38:50;103237.22;;;11.27;44.34
38616;BME280;24370;51.986;4.666;2023-02-28T04:41:16;103233.28;;;11.10;44.55
38616;BME280;24370;51.986;4.666;2023-02-28T04:43:42;103236.31;;;10.92;45.95
38616;BME280;24370;51.986;4.666;2023-02-28T04:46:08;103238.19;;;11.31;44.74
38616;BME280;24370;51.986;4.666;2023-02-28T04:48:35;103241.59;;;11.63;43.45
38616;BME280;24370;51.986;4.666;2023-02-28T04:51:07;103245.53;;;11.11;44.22
38616;BME280;24370;51.986;4.666;2023-02-28T04:53:34;103246.22;;;10.41;45.14
38616;BME280;24370;51.986;4.666;2023-02-28T04:56:00;103252.72;;;10.86;43.80
38616;BME280;24370;51.986;4.666;2023-02-28T04:58:26;103250.28;;;11.26;42.54
38616;BME280;24370;51.986;4.666;2023-02-28T05:00:53;103253.81;;;10.94;43.27
38616;BME280;24370;51.986;4.666;2023-02-28T05:03:19;103242.50;;;11.64;42.37
38616;BME280;24370;51.986;4.666;2023-02-28T05:05:46;103244.41;;;11.71;42.62
38616;BME280;24370;51.986;4.666;2023-02-28T05:08:11;103247.50;;;11.91;41.94
38616;BME280;24370;51.986;4.666;2023-02-28T05:10:36;103246.47;;;11.84;42.72
38616;BME280;24370;51.986;4.666;2023-02-28T05:13:02;103237.50;;;11.75;42.26
38616;BME280;24370;51.986;4.666;2023-02-28T05:15:27;103237.56;;;11.76;43.13
38616;BME280;24370;51.986;4.666;2023-02-28T05:17:53;103250.56;;;11.03;44.44
38616;BME280;24370;51.986;4.666;2023-02-28T05:20:18;103251.84;;;11.19;44.68
38616;BME280;24370;51.986;4.666;2023-02-28T05:22:43;103245.53;;;11.11;44.71
38616;BME280;24370;51.986;4.666;2023-02-28T05:25:15;103251.69;;;11.48;44.42
38616;BME280;24370;51.986;4.666;2023-02-28T05:27:41;103252.47;;;11.09;45.13
38616;BME280;24370;51.986;4.666;2023-02-28T05:30:07;103237.69;;;11.82;43.80
38616;BME280;24370;51.986;4.666;2023-02-28T05:32:38;103256.56;;;10.99;45.30
38616;BME280;24370;51.986;4.666;2023-02-28T05:35:04;103254.66;;;10.93;45.67
38616;BME280;24370;51.986;4.666;2023-02-28T05:37:30;103257.56;;;11.37;44.80
38616;BME280;24370;51.986;4.666;2023-02-28T05:39:55;103251.63;;;11.45;44.96
38616;BME280;24370;51.986;4.666;2023-02-28T05:42:21;103250.09;;;11.53;44.26
38616;BME280;24370;51.986;4.666;2023-02-28T05:44:46;103247.94;;;12.10;43.63
38616;BME280;24370;51.986;4.666;2023-02-28T05:47:12;103255.47;;;11.59;44.61
38616;BME280;24370;51.986;4.666;2023-02-28T05:49:40;103256.34;;;11.58;45.18
38616;BME280;24370;51.986;4.666;2023-02-28T05:52:06;103257.75;;;11.82;44.23
38616;BME280;24370;51.986;4.666;2023-02-28T05:54:31;103263.66;;;11.36;45.06
38616;BME280;24370;51.986;4.666;2023-02-28T05:56:57;103261.44;;;11.18;44.74
38616;BME280;24370;51.986;4.666;2023-02-28T05:59:22;103264.09;;;10.56;45.92
38616;BME280;24370;51.986;4.666;2023-02-28T06:01:47;103257.84;;;11.15;44.50
38616;BME280;24370;51.986;4.666;2023-02-28T06:04:14;103256.53;;;10.35;45.77
38616;BME280;24370;51.986;4.666;2023-02-28T06:06:43;103256.19;;;9.97;47.12
38616;BME280;24370;51.986;4.666;2023-02-28T06:09:10;103252.00;;;10.60;45.35
38616;BME280;24370;51.986;4.666;2023-02-28T06:11:35;103252.22;;;10.67;44.59
38616;BME280;24370;51.986;4.666;2023-02-28T06:14:02;103268.31;;;9.93;45.46
38616;BME280;24370;51.986;4.666;2023-02-28T06:16:29;103256.41;;;10.32;45.24
38616;BME280;24370;51.986;4.666;2023-02-28T06:18:57;103259.78;;;9.46;45.21
38616;BME280;24370;51.986;4.666;2023-02-28T06:21:23;103260.69;;;10.01;44.93
38616;BME280;24370;51.986;4.666;2023-02-28T06:23:49;103259.44;;;8.15;47.22
38616;BME280;24370;51.986;4.666;2023-02-28T06:26:14;103265.75;;;8.90;45.69
38616;BME280;24370;51.986;4.666;2023-02-28T06:28:40;103265.78;;;8.68;46.87
38616;BME280;24370;51.986;4.666;2023-02-28T06:31:10;103256.72;;;8.35;48.21
38616;BME280;24370;51.986;4.666;2023-02-28T06:33:37;103255.59;;;8.74;47.80
38616;BME280;24370;51.986;4.666;2023-02-28T06:36:04;103264.16;;;8.24;49.62
38616;BME280;24370;51.986;4.666;2023-02-28T06:38:30;103267.09;;;8.56;48.85
38616;BME280;24370;51.986;4.666;2023-02-28T06:40:57;103262.22;;;7.97;51.32
38616;BME280;24370;51.986;4.666;2023-02-28T06:43:24;103269.69;;;8.11;51.56
38616;BME280;24370;51.986;4.666;2023-02-28T06:45:49;103259.97;;;9.25;49.96
38616;BME280;24370;51.986;4.666;2023-02-28T06:48:15;103264.69;;;9.37;48.42
38616;BME280;24370;51.986;4.666;2023-02-28T06:50:41;103265.28;;;9.28;48.80
38616;BME280;24370;51.986;4.666;2023-02-28T06:53:07;103275.59;;;8.99;51.04
38616;BME280;24370;51.986;4.666;2023-02-28T06:55:32;103279.44;;;9.34;49.60
38616;BME280;24370;51.986;4.666;2023-02-28T06:57:58;103288.38;;;8.67;50.30
38616;BME280;24370;51.986;4.666;2023-02-28T07:00:24;103294.03;;;8.79;50.84
38616;BME280;24370;51.986;4.666;2023-02-28T07:02:50;103296.19;;;8.01;53.22
38616;BME280;24370;51.986;4.666;2023-02-28T07:05:15;103301.81;;;8.32;53.11
38616;BME280;24370;51.986;4.666;2023-02-28T07:07:41;103294.91;;;8.80;51.71
38616;BME280;24370;51.986;4.666;2023-02-28T07:10:10;103297.91;;;8.91;52.35
38616;BME280;24370;51.986;4.666;2023-02-28T07:12:36;103299.50;;;7.96;54.30
38616;BME280;24370;51.986;4.666;2023-02-28T07:15:03;103296.06;;;8.64;52.60
38616;BME280;24370;51.986;4.666;2023-02-28T07:17:28;103297.88;;;7.98;54.86
38616;BME280;24370;51.986;4.666;2023-02-28T07:19:54;103305.00;;;7.60;55.85
38616;BME280;24370;51.986;4.666;2023-02-28T07:22:19;103308.19;;;7.95;54.98
38616;BME280;24370;51.986;4.666;2023-02-28T07:24:45;103304.06;;;8.69;53.17
38616;BME280;24370;51.986;4.666;2023-02-28T07:27:10;103305.03;;;8.27;54.54
38616;BME280;24370;51.986;4.666;2023-02-28T07:29:36;103305.84;;;8.47;54.24
38616;BME280;24370;51.986;4.666;2023-02-28T07:32:02;103303.56;;;8.79;53.36
38616;BME280;24370;51.986;4.666;2023-02-28T07:34:28;103292.66;;;8.89;52.57
38616;BME280;24370;51.986;4.666;2023-02-28T07:36:54;103304.88;;;8.90;52.48
38616;BME280;24370;51.986;4.666;2023-02-28T07:39:20;103300.81;;;9.24;52.12
38616;BME280;24370;51.986;4.666;2023-02-28T07:41:45;103302.72;;;9.28;51.42
38616;BME280;24370;51.986;4.666;2023-02-28T07:44:11;103309.72;;;8.81;52.71
38616;BME280;24370;51.986;4.666;2023-02-28T07:46:36;103310.06;;;9.14;52.01
38616;BME280;24370;51.986;4.666;2023-02-28T07:49:02;103310.03;;;9.39;51.37
38616;BME280;24370;51.986;4.666;2023-02-28T07:51:29;103305.22;;;9.51;50.72
38616;BME280;24370;51.986;4.666;2023-02-28T07:53:54;103313.69;;;9.44;50.88
38616;BME280;24370;51.986;4.666;2023-02-28T07:56:20;103301.78;;;9.52;50.74
38616;BME280;24370;51.986;4.666;2023-02-28T07:58:46;103303.50;;;8.53;54.17
38616;BME280;24370;51.986;4.666;2023-02-28T08:01:12;103293.75;;;8.72;52.93
38616;BME280;24370;51.986;4.666;2023-02-28T08:03:38;103292.19;;;8.77;53.46
38616;BME280;24370;51.986;4.666;2023-02-28T08:06:05;103298.03;;;8.24;55.39
38616;BME280;24370;51.986;4.666;2023-02-28T08:08:31;103297.91;;;8.44;55.58
38616;BME280;24370;51.986;4.666;2023-02-28T08:11:01;103306.06;;;8.30;54.88
38616;BME280;24370;51.986;4.666;2023-02-28T08:13:28;103296.66;;;8.57;55.72
38616;BME280;24370;51.986;4.666;2023-02-28T08:15:54;103312.81;;;7.39;58.21
38616;BME280;24370;51.986;4.666;2023-02-28T08:18:20;103305.22;;;8.09;56.35
38616;BME280;24370;51.986;4.666;2023-02-28T08:20:46;103301.59;;;8.49;55.80
38616;BME280;24370;51.986;4.666;2023-02-28T08:23:11;103306.91;;;7.64;58.29
38616;BME280;24370;51.986;4.666;2023-02-28T08:25:37;103303.72;;;7.72;58.66
38616;BME280;24370;51.986;4.666;2023-02-28T08:28:02;103294.16;;;8.37;55.70
38616;BME280;24370;51.986;4.666;2023-02-28T08:30:28;103306.66;;;7.58;58.14
38616;BME280;24370;51.986;4.666;2023-02-28T08:32:53;103297.44;;;8.31;56.68
38616;BME280;24370;51.986;4.666;2023-02-28T08:35:20;103302.28;;;8.68;55.49
38616;BME280;24370;51.986;4.666;2023-02-28T08:37:47;103306.22;;;8.80;55.36
38616;BME280;24370;51.986;4.666;2023-02-28T08:40:13;103297.47;;;9.03;55.07
38616;BME280;24370;51.986;4.666;2023-02-28T08:42:44;103295.72;;;8.55;56.86
38616;BME280;24370;51.986;4.666;2023-02-28T08:45:10;103295.09;;;9.60;53.85
38616;BME280;24370;51.986;4.666;2023-02-28T08:47:35;103298.28;;;8.77;54.63
38616;BME280;24370;51.986;4.666;2023-02-28T08:50:01;103291.63;;;9.61;53.46
38616;BME280;24370;51.986;4.666;2023-02-28T08:52:26;103296.97;;;9.13;54.80
38616;BME280;24370;51.986;4.666;2023-02-28T08:54:52;103305.06;;;8.96;55.30
38616;BME280;24370;51.986;4.666;2023-02-28T08:57:17;103294.16;;;9.07;54.86
38616;BME280;24370;51.986;4.666;2023-02-28T08:59:42;103293.63;;;8.93;54.92
38616;BME280;24370;51.986;4.666;2023-02-28T09:02:11;103292.31;;;9.30;54.26
38616;BME280;24370;51.986;4.666;2023-02-28T09:04:37;103299.38;;;9.32;55.86
38616;BME280;24370;51.986;4.666;2023-02-28T09:07:02;103286.28;;;10.39;52.18
38616;BME280;24370;51.986;4.666;2023-02-28T09:09:28;103306.19;;;9.27;54.89
38616;BME280;24370;51.986;4.666;2023-02-28T09:11:55;103300.13;;;10.09;53.19
38616;BME280;24370;51.986;4.666;2023-02-28T09:14:21;103290.03;;;10.79;51.04
38616;BME280;24370;51.986;4.666;2023-02-28T09:16:46;103300.50;;;10.21;51.34
38616;BME280;24370;51.986;4.666;2023-02-28T09:19:12;103299.13;;;10.93;51.10
38616;BME280;24370;51.986;4.666;2023-02-28T09:21:37;103311.22;;;10.88;50.31
38616;BME280;24370;51.986;4.666;2023-02-28T09:24:03;103300.09;;;10.95;50.46
38616;BME280;24370;51.986;4.666;2023-02-28T09:26:28;103306.00;;;10.88;50.24
38616;BME280;24370;51.986;4.666;2023-02-28T09:28:54;103306.31;;;10.40;51.47
38616;BME280;24370;51.986;4.666;2023-02-28T09:31:25;103311.44;;;10.65;51.55
38616;BME280;24370;51.986;4.666;2023-02-28T09:33:53;103303.06;;;11.43;49.16
38616;BME280;24370;51.986;4.666;2023-02-28T09:36:19;103307.09;;;9.81;52.28
38616;BME280;24370;51.986;4.666;2023-02-28T09:38:45;103312.16;;;10.04;53.17
38616;BME280;24370;51.986;4.666;2023-02-28T09:41:21;103311.03;;;9.95;52.09
38616;BME280;24370;51.986;4.666;2023-02-28T09:43:50;103315.75;;;10.63;51.05
38616;BME280;24370;51.986;4.666;2023-02-28T09:46:34;103318.44;;;10.09;52.03
38616;BME280;24370;51.986;4.666;2023-02-28T09:49:05;103315.66;;;10.60;50.64
38616;BME280;24370;51.986;4.666;2023-02-28T09:51:51;103318.06;;;10.83;50.95
38616;BME280;24370;51.986;4.666;2023-02-28T09:54:22;103312.19;;;10.61;50.98
38616;BME280;24370;51.986;4.666;2023-02-28T09:56:51;103313.16;;;10.95;50.49
38616;BME280;24370;51.986;4.666;2023-02-28T10:07:02;103302.47;;;11.53;47.79
38616;BME280;24370;51.986;4.666;2023-02-28T10:09:33;103308.19;;;11.05;49.37
38616;BME280;24370;51.986;4.666;2023-02-28T10:12:04;103314.91;;;10.64;49.23
38616;BME280;24370;51.986;4.666;2023-02-28T10:14:33;103309.72;;;10.96;49.02
38616;BME280;24370;51.986;4.666;2023-02-28T10:17:04;103316.75;;;11.31;48.13
38616;BME280;24370;51.986;4.666;2023-02-28T10:19:33;103310.06;;;11.09;48.42
38616;BME280;24370;51.986;4.666;2023-02-28T10:22:27;103308.28;;;10.76;48.46
38616;BME280;24370;51.986;4.666;2023-02-28T10:24:55;103299.34;;;11.33;47.21
38616;BME280;24370;51.986;4.666;2023-02-28T10:27:31;103309.59;;;10.93;47.44
38616;BME280;24370;51.986;4.666;2023-02-28T10:30:03;103306.31;;;11.67;46.00
38616;BME280;24370;51.986;4.666;2023-02-28T10:32:31;103303.69;;;11.67;45.81
38616;BME280;24370;51.986;4.666;2023-02-28T10:37:39;103303.78;;;11.35;44.90
38616;BME280;24370;51.986;4.666;2023-02-28T10:40:07;103297.47;;;12.37;43.74
38616;BME280;24370;51.986;4.666;2023-02-28T10:42:57;103297.31;;;12.29;41.50
38616;BME280;24370;51.986;4.666;2023-02-28T10:45:23;103288.59;;;12.30;42.02
38616;BME280;24370;51.986;4.666;2023-02-28T10:47:56;103285.09;;;13.20;41.51
38616;BME280;24370;51.986;4.666;2023-02-28T10:56:05;103271.75;;;13.56;36.14
38616;BME280;24370;51.986;4.666;2023-02-28T11:01:25;103265.72;;;14.94;32.64
38616;BME280;24370;51.986;4.666;2023-02-28T11:03:58;103264.72;;;14.83;32.09
38616;BME280;24370;51.986;4.666;2023-02-28T11:06:32;103268.47;;;15.06;32.30
38616;BME280;24370;51.986;4.666;2023-02-28T11:09:06;103268.78;;;14.57;29.41
38616;BME280;24370;51.986;4.666;2023-02-28T11:11:45;103269.22;;;14.21;30.03
38616;BME280;24370;51.986;4.666;2023-02-28T11:14:33;103269.44;;;13.23;31.41
38616;BME280;24370;51.986;4.666;2023-02-28T11:17:14;103265.56;;;14.10;31.46
38616;BME280;24370;51.986;4.666;2023-02-28T11:19:50;103267.91;;;14.57;29.89
38616;BME280;24370;51.986;4.666;2023-02-28T11:22:25;103261.47;;;13.70;29.62
38616;BME280;24370;51.986;4.666;2023-02-28T11:24:55;103270.19;;;13.69;30.73
38616;BME280;24370;51.986;4.666;2023-02-28T11:29:57;103262.88;;;14.06;30.88
38616;BME280;24370;51.986;4.666;2023-02-28T11:32:28;103265.56;;;14.79;30.30
38616;BME280;24370;51.986;4.666;2023-02-28T11:35:21;103256.13;;;14.99;29.46
38616;BME280;24370;51.986;4.666;2023-02-28T11:37:48;103254.91;;;14.00;28.55
38616;BME280;24370;51.986;4.666;2023-02-28T11:40:19;103257.63;;;13.50;29.91
38616;BME280;24370;51.986;4.666;2023-02-28T11:43:04;103258.28;;;13.36;30.06
38616;BME280;24370;51.986;4.666;2023-02-28T11:49:19;103252.78;;;13.74;28.03
38616;BME280;24370;51.986;4.666;2023-02-28T11:51:24;103250.34;;;13.88;28.23
38616;BME280;24370;51.986;4.666;2023-02-28T11:54:19;103248.50;;;14.49;28.60
38616;BME280;24370;51.986;4.666;2023-02-28T11:57:03;103231.16;;;15.61;27.37
38616;BME280;24370;51.986;4.666;2023-02-28T12:02:33;103224.16;;;15.62;27.33
38616;BME280;24370;51.986;4.666;2023-02-28T12:05:25;103218.41;;;15.00;26.59
38616;BME280;24370;51.986;4.666;2023-02-28T12:10:30;103222.84;;;15.09;28.28
38616;BME280;24370;51.986;4.666;2023-02-28T12:18:42;103205.44;;;15.25;25.41
38616;BME280;24370;51.986;4.666;2023-02-28T12:26:38;103212.31;;;16.66;25.71
38616;BME280;24370;51.986;4.666;2023-02-28T12:29:26;103202.22;;;15.66;26.40
38616;BME280;24370;51.986;4.666;2023-02-28T12:34:26;103220.69;;;15.71;24.56
38616;BME280;24370;51.986;4.666;2023-02-28T12:36:55;103219.75;;;15.64;24.63
38616;BME280;24370;51.986;4.666;2023-02-28T12:39:27;103213.66;;;15.70;24.51
38616;BME280;24370;51.986;4.666;2023-02-28T12:41:58;103213.91;;;14.93;25.23
38616;BME280;24370;51.986;4.666;2023-02-28T12:44:35;103217.44;;;14.17;26.28
38616;BME280;24370;51.986;4.666;2023-02-28T12:47:05;103202.47;;;14.13;26.15
38616;BME280;24370;51.986;4.666;2023-02-28T12:49:42;103220.06;;;14.17;24.34
38616;BME280;24370;51.986;4.666;2023-02-28T12:52:13;103209.09;;;13.28;26.49
38616;BME280;24370;51.986;4.666;2023-02-28T12:54:47;103197.09;;;14.03;26.72
38616;BME280;24370;51.986;4.666;2023-02-28T13:00:30;103195.28;;;14.71;25.21
38616;BME280;24370;51.986;4.666;2023-02-28T13:08:52;103179.00;;;15.13;25.91
38616;BME280;24370;51.986;4.666;2023-02-28T13:11:28;103176.34;;;13.59;26.24
38616;BME280;24370;51.986;4.666;2023-02-28T13:14:03;103172.97;;;15.31;25.78
38616;BME280;24370;51.986;4.666;2023-02-28T13:16:50;103181.81;;;13.74;26.20
38616;BME280;24370;51.986;4.666;2023-02-28T13:19:18;103174.59;;;14.29;25.70
38616;BME280;24370;51.986;4.666;2023-02-28T13:21:45;103174.03;;;13.81;26.87
38616;BME280;24370;51.986;4.666;2023-02-28T13:24:40;103175.06;;;14.67;26.64
38616;BME280;24370;51.986;4.666;2023-02-28T13:29:44;103160.28;;;14.03;25.92
38616;BME280;24370;51.986;4.666;2023-02-28T13:35:08;103157.44;;;13.28;27.37
38616;BME280;24370;51.986;4.666;2023-02-28T13:37:35;103154.91;;;12.81;27.35
38616;BME280;24370;51.986;4.666;2023-02-28T13:42:36;103153.06;;;13.87;27.10
38616;BME280;24370;51.986;4.666;2023-02-28T13:47:53;103150.66;;;13.39;26.81
38616;BME280;24370;51.986;4.666;2023-02-28T13:56:16;103150.50;;;13.33;27.17
38616;BME280;24370;51.986;4.666;2023-02-28T13:58:58;103150.47;;;13.90;26.71
38616;BME280;24370;51.986;4.666;2023-02-28T14:01:34;103141.44;;;13.13;27.58
38616;BME280;24370;51.986;4.666;2023-02-28T14:04:46;103140.44;;;14.30;26.08
38616;BME280;24370;51.986;4.666;2023-02-28T14:07:20;103136.56;;;14.79;26.49
38616;BME280;24370;51.986;4.666;2023-02-28T14:09:55;103137.41;;;13.96;27.41
38616;BME280;24370;51.986;4.666;2023-02-28T14:18:27;103124.31;;;13.36;26.74
38616;BME280;24370;51.986;4.666;2023-02-28T14:21:43;103121.47;;;13.84;26.32
38616;BME280;24370;51.986;4.666;2023-02-28T14:24:04;103112.75;;;14.65;25.55
38616;BME280;24370;51.986;4.666;2023-02-28T14:32:53;103118.91;;;13.91;25.95
38616;BME280;24370;51.986;4.666;2023-02-28T14:35:39;103120.69;;;13.91;27.17
38616;BME280;24370;51.986;4.666;2023-02-28T14:38:25;103114.53;;;13.89;25.44
38616;BME280;24370;51.986;4.666;2023-02-28T14:40:55;103123.88;;;12.58;26.10
38616;BME280;24370;51.986;4.666;2023-02-28T14:43:25;103126.47;;;12.55;26.57
38616;BME280;24370;51.986;4.666;2023-02-28T14:45:53;103117.72;;;13.06;26.68
38616;BME280;24370;51.986;4.666;2023-02-28T14:48:20;103123.22;;;12.68;26.39
38616;BME280;24370;51.986;4.666;2023-02-28T14:50:58;103122.91;;;13.05;25.92
38616;BME280;24370;51.986;4.666;2023-02-28T14:53:27;103113.38;;;13.09;26.48
38616;BME280;24370;51.986;4.666;2023-02-28T14:55:53;103115.59;;;14.06;24.57
38616;BME280;24370;51.986;4.666;2023-02-28T14:58:26;103115.41;;;13.28;26.46
38616;BME280;24370;51.986;4.666;2023-02-28T15:00:54;103118.66;;;13.70;26.77
38616;BME280;24370;51.986;4.666;2023-02-28T15:03:23;103113.88;;;13.39;26.93
38616;BME280;24370;51.986;4.666;2023-02-28T15:05:57;103113.88;;;13.39;25.73